sensor_id;sensor_type;location;lat;lon;timestamp;P1;durP1;ratioP1;P2;durP2;ratioP2
63653;SDS011;49809;47.418;19.080;2023-05-10T10:09:59;1.65;;;1.55;;
63653;SDS011;49809;47.418;19.080;2023-05-10T15:10:15;0.98;;;0.88;;
63653;SDS011;49809;47.418;19.080;2023-05-10T15:13:24;1.33;;;0.70;;
63653;SDS011;49809;47.418;19.080;2023-05-10T15:17:10;0.60;;;0.60;;
63653;SDS011;49809;47.418;19.080;2023-05-10T15:20:13;1.20;;;0.90;;
63653;SDS011;49809;47.418;19.080;2023-05-10T15:23:16;1.05;;;0.80;;
63653;SDS011;49809;47.418;19.080;2023-05-10T15:26:19;0.70;;;0.70;;
63653;SDS011;49809;47.418;19.080;2023-05-10T15:29:32;2.00;;;0.82;;
63653;SDS011;49809;47.418;19.080;2023-05-10T15:32:40;2.53;;;0.88;;
63653;SDS011;49809;47.418;19.080;2023-05-10T15:35:43;1.00;;;0.82;;
63653;SDS011;49809;47.418;19.080;2023-05-10T15:38:49;2.20;;;0.95;;
63653;SDS011;49809;47.418;19.080;2023-05-10T15:41:54;0.90;;;0.80;;
63653;SDS011;49809;47.418;19.080;2023-05-10T15:44:57;2.12;;;0.80;;
63653;SDS011;49809;47.418;19.080;2023-05-10T15:48:01;1.92;;;0.90;;
63653;SDS011;49809;47.418;19.080;2023-05-10T15:51:05;0.95;;;0.80;;
63653;SDS011;49809;47.418;19.080;2023-05-10T15:54:28;1.17;;;1.02;;
63653;SDS011;49809;47.418;19.080;2023-05-10T15:57:34;0.80;;;0.65;;
63653;SDS011;49809;47.418;19.080;2023-05-10T16:00:41;0.93;;;0.80;;
63653;SDS011;49809;47.418;19.080;2023-05-10T16:03:46;0.75;;;0.75;;
63653;SDS011;49809;47.418;19.080;2023-05-10T16:06:49;2.53;;;1.12;;
63653;SDS011;49809;47.418;19.080;2023-05-10T16:09:55;1.52;;;0.90;;
63653;SDS011;49809;47.418;19.080;2023-05-10T16:13:01;1.73;;;0.98;;
63653;SDS011;49809;47.418;19.080;2023-05-10T16:16:06;1.33;;;0.95;;
63653;SDS011;49809;47.418;19.080;2023-05-10T16:19:13;1.67;;;1.00;;
63653;SDS011;49809;47.418;19.080;2023-05-10T16:22:17;1.80;;;0.80;;
63653;SDS011;49809;47.418;19.080;2023-05-10T16:25:22;2.53;;;0.80;;
63653;SDS011;49809;47.418;19.080;2023-05-10T16:28:25;1.05;;;0.80;;
63653;SDS011;49809;47.418;19.080;2023-05-10T16:31:29;1.08;;;0.90;;
63653;SDS011;49809;47.418;19.080;2023-05-10T16:34:35;1.62;;;0.77;;
63653;SDS011;49809;47.418;19.080;2023-05-10T16:37:41;1.20;;;0.90;;
63653;SDS011;49809;47.418;19.080;2023-05-10T16:40:46;1.42;;;0.90;;
63653;SDS011;49809;47.418;19.080;2023-05-10T16:43:54;1.50;;;1.00;;
63653;SDS011;49809;47.418;19.080;2023-05-10T16:46:59;1.95;;;1.02;;
63653;SDS011;49809;47.418;19.080;2023-05-10T16:50:04;1.15;;;1.00;;
63653;SDS011;49809;47.418;19.080;2023-05-10T16:53:08;1.65;;;1.10;;
63653;SDS011;49809;47.418;19.080;2023-05-10T16:56:13;1.67;;;1.20;;
63653;SDS011;49809;47.418;19.080;2023-05-10T16:59:23;2.03;;;1.10;;
63653;SDS011;49809;47.418;19.080;2023-05-10T17:02:28;1.83;;;1.17;;
63653;SDS011;49809;47.418;19.080;2023-05-10T17:05:33;1.70;;;1.00;;
63653;SDS011;49809;47.418;19.080;2023-05-10T17:08:37;3.35;;;1.20;;
63653;SDS011;49809;47.418;19.080;2023-05-10T17:11:42;1.58;;;1.15;;
63653;SDS011;49809;47.418;19.080;2023-05-10T17:14:46;1.70;;;1.20;;
63653;SDS011;49809;47.418;19.080;2023-05-10T17:17:51;1.50;;;1.00;;
63653;SDS011;49809;47.418;19.080;2023-05-10T17:20:56;2.20;;;1.43;;
63653;SDS011;49809;47.418;19.080;2023-05-10T17:24:00;5.55;;;1.30;;
63653;SDS011;49809;47.418;19.080;2023-05-10T17:27:14;2.15;;;1.20;;
63653;SDS011;49809;47.418;19.080;2023-05-10T17:30:19;2.20;;;1.40;;
63653;SDS011;49809;47.418;19.080;2023-05-10T17:33:32;3.08;;;1.10;;
63653;SDS011;49809;47.418;19.080;2023-05-10T17:36:40;2.90;;;1.30;;
63653;SDS011;49809;47.418;19.080;2023-05-10T17:39:45;1.85;;;1.27;;
63653;SDS011;49809;47.418;19.080;2023-05-10T17:42:52;1.90;;;1.30;;
63653;SDS011;49809;47.418;19.080;2023-05-10T17:45:55;1.83;;;1.42;;
63653;SDS011;49809;47.418;19.080;2023-05-10T17:48:58;2.60;;;1.52;;
63653;SDS011;49809;47.418;19.080;2023-05-10T17:52:04;2.00;;;1.50;;
63653;SDS011;49809;47.418;19.080;2023-05-10T17:55:07;1.95;;;1.50;;
63653;SDS011;49809;47.418;19.080;2023-05-10T17:58:11;1.95;;;1.70;;
63653;SDS011;49809;47.418;19.080;2023-05-10T18:01:16;3.80;;;1.75;;
63653;SDS011;49809;47.418;19.080;2023-05-10T18:04:19;3.33;;;2.10;;
63653;SDS011;49809;47.418;19.080;2023-05-10T18:07:26;2.80;;;1.70;;
63653;SDS011;49809;47.418;19.080;2023-05-10T18:10:32;4.27;;;1.77;;
63653;SDS011;49809;47.418;19.080;2023-05-10T18:13:43;2.67;;;1.60;;
63653;SDS011;49809;47.418;19.080;2023-05-10T18:17:06;1.75;;;1.33;;
63653;SDS011;49809;47.418;19.080;2023-05-10T18:20:20;1.60;;;1.30;;
63653;SDS011;49809;47.418;19.080;2023-05-10T18:23:23;1.70;;;1.23;;
63653;SDS011;49809;47.418;19.080;2023-05-10T18:26:29;4.90;;;1.40;;
63653;SDS011;49809;47.418;19.080;2023-05-10T18:29:40;2.40;;;1.30;;
63653;SDS011;49809;47.418;19.080;2023-05-10T18:32:48;2.20;;;1.20;;
63653;SDS011;49809;47.418;19.080;2023-05-10T18:35:53;3.17;;;1.23;;
63653;SDS011;49809;47.418;19.080;2023-05-10T18:38:57;2.00;;;1.05;;
63653;SDS011;49809;47.418;19.080;2023-05-10T18:42:03;1.92;;;1.40;;
63653;SDS011;49809;47.418;19.080;2023-05-10T18:45:08;1.50;;;1.12;;
63653;SDS011;49809;47.418;19.080;2023-05-10T18:48:32;1.48;;;1.37;;
63653;SDS011;49809;47.418;19.080;2023-05-10T18:51:35;3.00;;;1.37;;
63653;SDS011;49809;47.418;19.080;2023-05-10T18:54:39;1.65;;;1.20;;
63653;SDS011;49809;47.418;19.080;2023-05-10T18:57:43;1.90;;;1.45;;
63653;SDS011;49809;47.418;19.080;2023-05-10T19:00:47;2.03;;;1.30;;
63653;SDS011;49809;47.418;19.080;2023-05-10T19:03:52;1.67;;;1.20;;
63653;SDS011;49809;47.418;19.080;2023-05-10T19:10:05;1.80;;;1.30;;
63653;SDS011;49809;47.418;19.080;2023-05-10T19:13:11;1.85;;;1.48;;
63653;SDS011;49809;47.418;19.080;2023-05-10T19:16:17;1.85;;;1.02;;
63653;SDS011;49809;47.418;19.080;2023-05-10T19:19:25;2.05;;;1.35;;
63653;SDS011;49809;47.418;19.080;2023-05-10T19:22:31;1.98;;;1.20;;
63653;SDS011;49809;47.418;19.080;2023-05-10T19:26:08;1.80;;;1.12;;
63653;SDS011;49809;47.418;19.080;2023-05-10T19:29:15;6.25;;;1.15;;
63653;SDS011;49809;47.418;19.080;2023-05-10T19:32:20;2.53;;;1.42;;
63653;SDS011;49809;47.418;19.080;2023-05-10T19:35:27;2.00;;;1.10;;
63653;SDS011;49809;47.418;19.080;2023-05-10T19:38:34;1.75;;;1.23;;
63653;SDS011;49809;47.418;19.080;2023-05-10T19:41:39;4.10;;;1.30;;
63653;SDS011;49809;47.418;19.080;2023-05-10T19:44:43;1.83;;;1.30;;
63653;SDS011;49809;47.418;19.080;2023-05-10T19:47:48;1.48;;;1.10;;
63653;SDS011;49809;47.418;19.080;2023-05-10T19:51:24;1.77;;;0.98;;
63653;SDS011;49809;47.418;19.080;2023-05-10T19:54:30;1.83;;;1.20;;
63653;SDS011;49809;47.418;19.080;2023-05-10T19:57:36;3.00;;;1.20;;
63653;SDS011;49809;47.418;19.080;2023-05-10T20:00:41;2.22;;;1.20;;
63653;SDS011;49809;47.418;19.080;2023-05-10T20:03:51;2.12;;;1.27;;
63653;SDS011;49809;47.418;19.080;2023-05-10T20:06:58;3.03;;;1.45;;
63653;SDS011;49809;47.418;19.080;2023-05-10T20:10:03;2.53;;;1.50;;
63653;SDS011;49809;47.418;19.080;2023-05-10T20:13:07;6.30;;;1.60;;
63653;SDS011;49809;47.418;19.080;2023-05-10T20:16:12;1.40;;;1.10;;
63653;SDS011;49809;47.418;19.080;2023-05-10T20:19:20;3.45;;;1.50;;
63653;SDS011;49809;47.418;19.080;2023-05-10T20:22:57;3.33;;;1.30;;
63653;SDS011;49809;47.418;19.080;2023-05-10T20:26:03;2.60;;;1.58;;
63653;SDS011;49809;47.418;19.080;2023-05-10T20:29:07;4.00;;;1.20;;
63653;SDS011;49809;47.418;19.080;2023-05-10T20:32:12;1.45;;;1.23;;
63653;SDS011;49809;47.418;19.080;2023-05-10T20:35:18;2.10;;;1.50;;
63653;SDS011;49809;47.418;19.080;2023-05-10T20:38:22;2.83;;;1.30;;
63653;SDS011;49809;47.418;19.080;2023-05-10T20:41:26;2.35;;;1.20;;
63653;SDS011;49809;47.418;19.080;2023-05-10T20:44:30;2.95;;;1.50;;
63653;SDS011;49809;47.418;19.080;2023-05-10T20:47:36;2.37;;;1.40;;
63653;SDS011;49809;47.418;19.080;2023-05-10T20:51:00;2.50;;;1.20;;
63653;SDS011;49809;47.418;19.080;2023-05-10T20:54:27;2.17;;;1.20;;
63653;SDS011;49809;47.418;19.080;2023-05-10T20:57:30;2.47;;;1.45;;
63653;SDS011;49809;47.418;19.080;2023-05-10T21:00:37;3.00;;;1.37;;
63653;SDS011;49809;47.418;19.080;2023-05-10T21:03:41;2.22;;;1.37;;
63653;SDS011;49809;47.418;19.080;2023-05-10T21:06:44;1.40;;;1.10;;
63653;SDS011;49809;47.418;19.080;2023-05-10T21:09:48;1.80;;;1.20;;
63653;SDS011;49809;47.418;19.080;2023-05-10T21:12:52;1.33;;;1.15;;
63653;SDS011;49809;47.418;19.080;2023-05-10T21:16:00;3.83;;;1.10;;
63653;SDS011;49809;47.418;19.080;2023-05-10T21:19:05;2.20;;;1.40;;
63653;SDS011;49809;47.418;19.080;2023-05-10T21:22:08;1.80;;;1.37;;
63653;SDS011;49809;47.418;19.080;2023-05-10T21:25:14;2.25;;;1.20;;
63653;SDS011;49809;47.418;19.080;2023-05-10T21:28:38;1.58;;;1.20;;
63653;SDS011;49809;47.418;19.080;2023-05-10T21:31:44;1.77;;;1.30;;
63653;SDS011;49809;47.418;19.080;2023-05-10T21:34:48;1.73;;;1.15;;
63653;SDS011;49809;47.418;19.080;2023-05-10T21:37:55;2.72;;;1.55;;
63653;SDS011;49809;47.418;19.080;2023-05-10T21:40:59;3.10;;;1.33;;
63653;SDS011;49809;47.418;19.080;2023-05-10T21:44:03;1.35;;;1.20;;
63653;SDS011;49809;47.418;19.080;2023-05-10T21:47:11;1.50;;;1.20;;
63653;SDS011;49809;47.418;19.080;2023-05-10T21:50:15;2.80;;;1.45;;
63653;SDS011;49809;47.418;19.080;2023-05-10T21:53:19;4.80;;;1.48;;
63653;SDS011;49809;47.418;19.080;2023-05-10T21:56:23;1.55;;;1.10;;
63653;SDS011;49809;47.418;19.080;2023-05-10T21:59:26;1.30;;;1.20;;
63653;SDS011;49809;47.418;19.080;2023-05-10T22:02:30;2.15;;;1.35;;
63653;SDS011;49809;47.418;19.080;2023-05-10T22:05:34;1.73;;;1.00;;
63653;SDS011;49809;47.418;19.080;2023-05-10T22:08:50;2.28;;;1.30;;
63653;SDS011;49809;47.418;19.080;2023-05-10T22:11:54;1.40;;;1.10;;
63653;SDS011;49809;47.418;19.080;2023-05-10T22:14:59;2.12;;;1.33;;
63653;SDS011;49809;47.418;19.080;2023-05-10T22:18:42;2.75;;;1.40;;
63653;SDS011;49809;47.418;19.080;2023-05-10T22:21:47;1.40;;;1.23;;
63653;SDS011;49809;47.418;19.080;2023-05-10T22:24:52;2.08;;;1.30;;
63653;SDS011;49809;47.418;19.080;2023-05-10T22:27:56;2.67;;;1.42;;
63653;SDS011;49809;47.418;19.080;2023-05-10T22:31:44;1.65;;;1.23;;
63653;SDS011;49809;47.418;19.080;2023-05-10T22:34:47;1.92;;;1.42;;
63653;SDS011;49809;47.418;19.080;2023-05-10T22:37:53;5.32;;;1.48;;
63653;SDS011;49809;47.418;19.080;2023-05-10T22:40:59;1.73;;;1.30;;
63653;SDS011;49809;47.418;19.080;2023-05-10T22:44:11;1.70;;;1.30;;
63653;SDS011;49809;47.418;19.080;2023-05-10T22:47:22;1.92;;;1.30;;
63653;SDS011;49809;47.418;19.080;2023-05-10T22:50:48;1.92;;;1.12;;
63653;SDS011;49809;47.418;19.080;2023-05-10T22:53:51;1.58;;;1.12;;
63653;SDS011;49809;47.418;19.080;2023-05-10T22:56:55;1.73;;;1.20;;
63653;SDS011;49809;47.418;19.080;2023-05-10T23:00:19;1.58;;;1.25;;
63653;SDS011;49809;47.418;19.080;2023-05-10T23:03:23;5.80;;;1.45;;
63653;SDS011;49809;47.418;19.080;2023-05-10T23:06:47;2.62;;;1.42;;
63653;SDS011;49809;47.418;19.080;2023-05-10T23:09:55;2.10;;;1.30;;
63653;SDS011;49809;47.418;19.080;2023-05-10T23:12:59;8.52;;;1.40;;
63653;SDS011;49809;47.418;19.080;2023-05-10T23:16:04;3.30;;;1.62;;
63653;SDS011;49809;47.418;19.080;2023-05-10T23:19:17;2.28;;;1.50;;
63653;SDS011;49809;47.418;19.080;2023-05-10T23:22:22;2.40;;;1.33;;
63653;SDS011;49809;47.418;19.080;2023-05-10T23:25:25;6.43;;;1.52;;
63653;SDS011;49809;47.418;19.080;2023-05-10T23:28:30;2.80;;;1.30;;
63653;SDS011;49809;47.418;19.080;2023-05-10T23:31:34;3.00;;;1.35;;
63653;SDS011;49809;47.418;19.080;2023-05-10T23:34:42;4.43;;;1.77;;
63653;SDS011;49809;47.418;19.080;2023-05-10T23:37:46;2.15;;;1.33;;
63653;SDS011;49809;47.418;19.080;2023-05-10T23:40:49;2.78;;;1.42;;
63653;SDS011;49809;47.418;19.080;2023-05-10T23:43:54;2.30;;;1.70;;
63653;SDS011;49809;47.418;19.080;2023-05-10T23:46:58;3.62;;;1.40;;
63653;SDS011;49809;47.418;19.080;2023-05-10T23:50:02;2.15;;;1.42;;
63653;SDS011;49809;47.418;19.080;2023-05-10T23:53:07;1.25;;;1.15;;
63653;SDS011;49809;47.418;19.080;2023-05-10T23:56:16;3.17;;;1.58;;
63653;SDS011;49809;47.418;19.080;2023-05-10T23:59:20;3.35;;;1.58;;
